sensor_id;sensor_type;location;lat;lon;timestamp;pressure;altitude;pressure_sealevel;temperature;humidity
23659;BME280;12006;42.666;23.326;2023-02-28T00:00:20;-24051.50;;;8.06;100.00
23659;BME280;12006;42.666;23.326;2023-02-28T00:02:46;-24049.78;;;8.01;100.00
23659;BME280;12006;42.666;23.326;2023-02-28T00:05:15;-24049.78;;;8.01;100.00
23659;BME280;12006;42.666;23.326;2023-02-28T00:07:41;-24051.16;;;8.05;100.00
23659;BME280;12006;42.666;23.326;2023-02-28T00:10:09;-24048.22;;;7.96;100.00
23659;BME280;12006;42.666;23.326;2023-02-28T00:12:36;-24047.03;;;7.93;100.00
23659;BME280;12006;42.666;23.326;2023-02-28T00:15:05;-24045.66;;;7.89;100.00
23659;BME280;12006;42.666;23.326;2023-02-28T00:17:31;-24043.25;;;7.82;100.00
23659;BME280;12006;42.666;23.326;2023-02-28T00:19:56;-24040.16;;;7.73;100.00
23659;BME280;12006;42.666;23.326;2023-02-28T00:22:22;-24043.41;;;7.82;100.00
23659;BME280;12006;42.666;23.326;2023-02-28T00:24:47;-24049.44;;;8.00;100.00
23659;BME280;12006;42.666;23.326;2023-02-28T00:27:14;-24052.00;;;8.07;100.00
23659;BME280;12006;42.666;23.326;2023-02-28T00:29:40;-24050.97;;;8.04;100.00
23659;BME280;12006;42.666;23.326;2023-02-28T00:32:06;-24049.59;;;8.00;100.00
23659;BME280;12006;42.666;23.326;2023-02-28T00:34:32;-24045.47;;;7.88;100.00
23659;BME280;12006;42.666;23.326;2023-02-28T00:37:06;-24048.91;;;7.98;100.00
23659;BME280;12006;42.666;23.326;2023-02-28T00:39:35;-24050.47;;;8.03;100.00
23659;BME280;12006;42.666;23.326;2023-02-28T00:42:01;-24052.69;;;8.09;100.00
23659;BME280;12006;42.666;23.326;2023-02-28T00:44:27;-24054.59;;;8.15;100.00
23659;BME280;12006;42.666;23.326;2023-02-28T00:46:53;-24050.47;;;8.03;100.00
23659;BME280;12006;42.666;23.326;2023-02-28T00:49:19;-24046.69;;;7.92;100.00
23659;BME280;12006;42.666;23.326;2023-02-28T00:51:45;-24042.91;;;7.81;100.00
23659;BME280;12006;42.666;23.326;2023-02-28T00:54:11;-24040.16;;;7.73;100.00
23659;BME280;12006;42.666;23.326;2023-02-28T00:56:36;-24038.78;;;7.69;100.00
23659;BME280;12006;42.666;23.326;2023-02-28T00:59:02;-24036.19;;;7.62;100.00
23659;BME280;12006;42.666;23.326;2023-02-28T01:01:27;-24028.81;;;7.40;100.00
23659;BME280;12006;42.666;23.326;2023-02-28T01:03:52;-24031.03;;;7.47;100.00
23659;BME280;12006;42.666;23.326;2023-02-28T01:06:18;-24028.47;;;7.39;100.00
23659;BME280;12006;42.666;23.326;2023-02-28T01:08:43;-24026.91;;;7.35;100.00
23659;BME280;12006;42.666;23.326;2023-02-28T01:11:11;-24024.84;;;7.29;100.00
23659;BME280;12006;42.666;23.326;2023-02-28T01:13:37;-24025.00;;;7.29;100.00
23659;BME280;12006;42.666;23.326;2023-02-28T01:16:03;-24023.63;;;7.25;100.00
23659;BME280;12006;42.666;23.326;2023-02-28T01:18:29;-24024.34;;;7.27;100.00
23659;BME280;12006;42.666;23.326;2023-02-28T01:20:54;-24026.75;;;7.34;100.00
23659;BME280;12006;42.666;23.326;2023-02-28T01:23:21;-24028.81;;;7.40;100.00
23659;BME280;12006;42.666;23.326;2023-02-28T01:25:51;-24025.38;;;7.30;100.00
23659;BME280;12006;42.666;23.326;2023-02-28T01:28:17;-24020.03;;;7.15;100.00
23659;BME280;12006;42.666;23.326;2023-02-28T01:30:42;-24019.50;;;7.14;100.00
23659;BME280;12006;42.666;23.326;2023-02-28T01:33:07;-24023.63;;;7.25;100.00
23659;BME280;12006;42.666;23.326;2023-02-28T01:35:34;-24020.03;;;7.15;100.00
23659;BME280;12006;42.666;23.326;2023-02-28T01:38:00;-24020.38;;;7.16;100.00
23659;BME280;12006;42.666;23.326;2023-02-28T01:40:25;-24025.00;;;7.29;100.00
23659;BME280;12006;42.666;23.326;2023-02-28T01:42:51;-24024.00;;;7.26;100.00
23659;BME280;12006;42.666;23.326;2023-02-28T01:45:28;-24021.91;;;7.21;100.00
23659;BME280;12006;42.666;23.326;2023-02-28T01:48:01;-24019.69;;;7.14;100.00
23659;BME280;12006;42.666;23.326;2023-02-28T01:50:31;-24015.72;;;7.03;100.00
23659;BME280;12006;42.666;23.326;2023-02-28T01:53:02;-24015.38;;;7.02;100.00
23659;BME280;12006;42.666;23.326;2023-02-28T01:55:30;-24016.41;;;7.05;100.00
23659;BME280;12006;42.666;23.326;2023-02-28T01:58:00;-24013.66;;;6.97;100.00
23659;BME280;12006;42.666;23.326;2023-02-28T02:00:28;-24010.91;;;6.89;100.00
23659;BME280;12006;42.666;23.326;2023-02-28T02:03:00;-24015.22;;;7.01;100.00
23659;BME280;12006;42.666;23.326;2023-02-28T02:05:30;-24017.09;;;7.07;100.00
23659;BME280;12006;42.666;23.326;2023-02-28T02:08:10;-24019.16;;;7.13;100.00
23659;BME280;12006;42.666;23.326;2023-02-28T02:16:02;-24016.25;;;7.04;100.00
23659;BME280;12006;42.666;23.326;2023-02-28T02:35:10;-24020.53;;;7.17;100.00
23659;BME280;12006;42.666;23.326;2023-02-28T02:40:18;-24015.72;;;7.03;100.00
23659;BME280;12006;42.666;23.326;2023-02-28T02:43:01;-24014.88;;;7.00;100.00
23659;BME280;12006;42.666;23.326;2023-02-28T02:45:32;-24012.97;;;6.95;100.00
23659;BME280;12006;42.666;23.326;2023-02-28T02:48:02;-24010.56;;;6.88;100.00
23659;BME280;12006;42.666;23.326;2023-02-28T02:50:36;-24010.22;;;6.87;100.00
23659;BME280;12006;42.666;23.326;2023-02-28T02:53:05;-24008.50;;;6.82;100.00
23659;BME280;12006;42.666;23.326;2023-02-28T02:55:34;-24008.84;;;6.83;100.00
23659;BME280;12006;42.666;23.326;2023-02-28T02:58:04;-24009.53;;;6.85;100.00
23659;BME280;12006;42.666;23.326;2023-02-28T03:00:41;-24005.75;;;6.74;100.00
23659;BME280;12006;42.666;23.326;2023-02-28T03:03:09;-24008.16;;;6.81;100.00
23659;BME280;12006;42.666;23.326;2023-02-28T03:08:09;-24014.69;;;7.00;100.00
23659;BME280;12006;42.666;23.326;2023-02-28T03:10:40;-24019.34;;;7.13;100.00
23659;BME280;12006;42.666;23.326;2023-02-28T03:13:36;-24020.88;;;7.18;100.00
23659;BME280;12006;42.666;23.326;2023-02-28T03:19:04;-24026.75;;;7.34;100.00
23659;BME280;12006;42.666;23.326;2023-02-28T03:29:48;-24026.38;;;7.33;100.00
23659;BME280;12006;42.666;23.326;2023-02-28T03:32:28;-24030.84;;;7.46;100.00
23659;BME280;12006;42.666;23.326;2023-02-28T03:35:14;-24028.47;;;7.39;100.00
23659;BME280;12006;42.666;23.326;2023-02-28T03:37:46;-24034.81;;;7.58;100.00
23659;BME280;12006;42.666;23.326;2023-02-28T03:40:15;-24035.34;;;7.59;100.00
23659;BME280;12006;42.666;23.326;2023-02-28T03:42:45;-24037.41;;;7.65;100.00
23659;BME280;12006;42.666;23.326;2023-02-28T03:45:41;-24037.41;;;7.65;100.00
23659;BME280;12006;42.666;23.326;2023-02-28T03:48:14;-24037.22;;;7.65;100.00
23659;BME280;12006;42.666;23.326;2023-02-28T03:50:48;-24033.97;;;7.55;100.00
23659;BME280;12006;42.666;23.326;2023-02-28T03:53:34;-24037.56;;;7.66;100.00
23659;BME280;12006;42.666;23.326;2023-02-28T03:56:13;-24031.56;;;7.48;100.00
23659;BME280;12006;42.666;23.326;2023-02-28T04:01:28;-24034.66;;;7.57;100.00
23659;BME280;12006;42.666;23.326;2023-02-28T04:03:55;-24030.84;;;7.46;100.00
23659;BME280;12006;42.666;23.326;2023-02-28T04:06:22;-24030.84;;;7.46;100.00
23659;BME280;12006;42.666;23.326;2023-02-28T04:08:48;-24033.97;;;7.55;100.00
23659;BME280;12006;42.666;23.326;2023-02-28T04:13:51;-24020.19;;;7.16;100.00
23659;BME280;12006;42.666;23.326;2023-02-28T04:16:17;-24020.19;;;7.16;100.00
23659;BME280;12006;42.666;23.326;2023-02-28T04:18:43;-24021.56;;;7.20;100.00
23659;BME280;12006;42.666;23.326;2023-02-28T04:21:09;-24022.25;;;7.22;100.00
23659;BME280;12006;42.666;23.326;2023-02-28T04:23:35;-24024.00;;;7.26;100.00
23659;BME280;12006;42.666;23.326;2023-02-28T04:26:00;-24026.38;;;7.33;100.00
23659;BME280;12006;42.666;23.326;2023-02-28T04:28:26;-24029.16;;;7.41;100.00
23659;BME280;12006;42.666;23.326;2023-02-28T04:30:59;-24032.06;;;7.50;100.00
23659;BME280;12006;42.666;23.326;2023-02-28T04:33:26;-24025.38;;;7.30;100.00
23659;BME280;12006;42.666;23.326;2023-02-28T04:36:04;-24033.09;;;7.53;100.00
23659;BME280;12006;42.666;23.326;2023-02-28T04:38:32;-24036.19;;;7.62;100.00
23659;BME280;12006;42.666;23.326;2023-02-28T04:40:59;-24034.13;;;7.56;100.00
23659;BME280;12006;42.666;23.326;2023-02-28T04:43:26;-24031.91;;;7.49;100.00
23659;BME280;12006;42.666;23.326;2023-02-28T04:45:51;-24029.16;;;7.41;100.00
23659;BME280;12006;42.666;23.326;2023-02-28T04:48:17;-24033.44;;;7.54;100.00
23659;BME280;12006;42.666;23.326;2023-02-28T04:50:42;-24026.38;;;7.33;100.00
23659;BME280;12006;42.666;23.326;2023-02-28T04:53:08;-24027.59;;;7.37;100.00
23659;BME280;12006;42.666;23.326;2023-02-28T04:55:34;-24024.16;;;7.27;100.00
23659;BME280;12006;42.666;23.326;2023-02-28T04:57:59;-24024.66;;;7.28;100.00
23659;BME280;12006;42.666;23.326;2023-02-28T05:00:24;-24024.66;;;7.28;100.00
23659;BME280;12006;42.666;23.326;2023-02-28T05:02:50;-24022.25;;;7.22;100.00
23659;BME280;12006;42.666;23.326;2023-02-28T05:05:15;-24025.72;;;7.31;100.00
23659;BME280;12006;42.666;23.326;2023-02-28T05:07:43;-24026.75;;;7.34;100.00
23659;BME280;12006;42.666;23.326;2023-02-28T05:10:10;-24027.59;;;7.37;100.00
23659;BME280;12006;42.666;23.326;2023-02-28T05:12:35;-24032.59;;;7.51;100.00
23659;BME280;12006;42.666;23.326;2023-02-28T05:15:01;-24028.63;;;7.40;100.00
23659;BME280;12006;42.666;23.326;2023-02-28T05:17:27;-24034.66;;;7.57;100.00
23659;BME280;12006;42.666;23.326;2023-02-28T05:19:53;-24030.53;;;7.45;100.00
23659;BME280;12006;42.666;23.326;2023-02-28T05:22:18;-24029.66;;;7.43;100.00
23659;BME280;12006;42.666;23.326;2023-02-28T05:24:43;-24033.28;;;7.53;100.00
23659;BME280;12006;42.666;23.326;2023-02-28T05:27:09;-24034.31;;;7.56;100.00
23659;BME280;12006;42.666;23.326;2023-02-28T05:29:35;-24032.75;;;7.52;100.00
23659;BME280;12006;42.666;23.326;2023-02-28T05:32:10;-24031.38;;;7.48;100.00
23659;BME280;12006;42.666;23.326;2023-02-28T05:34:39;-24033.44;;;7.54;100.00
23659;BME280;12006;42.666;23.326;2023-02-28T05:37:05;-24036.03;;;7.61;100.00
23659;BME280;12006;42.666;23.326;2023-02-28T05:39:32;-24037.06;;;7.64;100.00
23659;BME280;12006;42.666;23.326;2023-02-28T05:41:58;-24035.84;;;7.61;100.00
23659;BME280;12006;42.666;23.326;2023-02-28T05:44:23;-24041.19;;;7.76;100.00
23659;BME280;12006;42.666;23.326;2023-02-28T05:46:49;-24044.63;;;7.86;100.00
23659;BME280;12006;42.666;23.326;2023-02-28T05:49:14;-24044.44;;;7.85;100.00
23659;BME280;12006;42.666;23.326;2023-02-28T05:51:40;-24045.31;;;7.88;100.00
23659;BME280;12006;42.666;23.326;2023-02-28T05:54:06;-24043.25;;;7.82;100.00
23659;BME280;12006;42.666;23.326;2023-02-28T05:56:32;-24047.72;;;7.95;100.00
23659;BME280;12006;42.666;23.326;2023-02-28T05:58:59;-24048.91;;;7.98;100.00
23659;BME280;12006;42.666;23.326;2023-02-28T06:01:40;-24046.34;;;7.91;100.00
23659;BME280;12006;42.666;23.326;2023-02-28T06:04:08;-24046.34;;;7.91;100.00
23659;BME280;12006;42.666;23.326;2023-02-28T06:06:34;-24047.38;;;7.94;100.00
23659;BME280;12006;42.666;23.326;2023-02-28T06:09:01;-24048.91;;;7.98;100.00
23659;BME280;12006;42.666;23.326;2023-02-28T06:11:27;-24047.03;;;7.93;100.00
23659;BME280;12006;42.666;23.326;2023-02-28T06:13:54;-24048.75;;;7.98;100.00
23659;BME280;12006;42.666;23.326;2023-02-28T06:16:20;-24049.25;;;7.99;100.00
23659;BME280;12006;42.666;23.326;2023-02-28T06:18:46;-24042.03;;;7.79;100.00
23659;BME280;12006;42.666;23.326;2023-02-28T06:21:12;-24038.78;;;7.69;100.00
23659;BME280;12006;42.666;23.326;2023-02-28T06:23:37;-24043.25;;;7.82;100.00
23659;BME280;12006;42.666;23.326;2023-02-28T06:26:03;-24044.28;;;7.85;100.00
23659;BME280;12006;42.666;23.326;2023-02-28T06:28:28;-24045.31;;;7.88;100.00
23659;BME280;12006;42.666;23.326;2023-02-28T06:30:54;-24047.72;;;7.95;100.00
23659;BME280;12006;42.666;23.326;2023-02-28T06:33:20;-24048.75;;;7.98;100.00
23659;BME280;12006;42.666;23.326;2023-02-28T06:35:54;-24053.38;;;8.11;100.00
23659;BME280;12006;42.666;23.326;2023-02-28T06:38:20;-24059.56;;;8.29;100.00
23659;BME280;12006;42.666;23.326;2023-02-28T06:40:56;-24057.84;;;8.24;100.00
23659;BME280;12006;42.666;23.326;2023-02-28T06:43:23;-24061.47;;;8.35;100.00
23659;BME280;12006;42.666;23.326;2023-02-28T06:45:49;-24062.84;;;8.39;100.00
23659;BME280;12006;42.666;23.326;2023-02-28T06:48:15;-24063.88;;;8.42;100.00
23659;BME280;12006;42.666;23.326;2023-02-28T06:50:40;-24066.28;;;8.48;100.00
23659;BME280;12006;42.666;23.326;2023-02-28T06:53:06;-24063.88;;;8.42;100.00
23659;BME280;12006;42.666;23.326;2023-02-28T06:55:31;-24068.50;;;8.55;100.00
23659;BME280;12006;42.666;23.326;2023-02-28T06:57:57;-24062.66;;;8.38;100.00
23659;BME280;12006;42.666;23.326;2023-02-28T07:00:23;-24062.66;;;8.38;100.00
23659;BME280;12006;42.666;23.326;2023-02-28T07:02:50;-24060.09;;;8.31;100.00
23659;BME280;12006;42.666;23.326;2023-02-28T07:05:15;-24057.00;;;8.22;100.00
23659;BME280;12006;42.666;23.326;2023-02-28T07:07:41;-24062.50;;;8.38;100.00
23659;BME280;12006;42.666;23.326;2023-02-28T07:10:12;-24062.50;;;8.38;100.00
23659;BME280;12006;42.666;23.326;2023-02-28T07:12:39;-24066.28;;;8.48;100.00
23659;BME280;12006;42.666;23.326;2023-02-28T07:15:05;-24070.41;;;8.60;100.00
23659;BME280;12006;42.666;23.326;2023-02-28T07:17:31;-24070.41;;;8.60;100.00
23659;BME280;12006;42.666;23.326;2023-02-28T07:19:56;-24069.03;;;8.56;100.00
23659;BME280;12006;42.666;23.326;2023-02-28T07:22:22;-24070.75;;;8.61;100.00
23659;BME280;12006;42.666;23.326;2023-02-28T07:24:48;-24070.56;;;8.61;100.00
23659;BME280;12006;42.666;23.326;2023-02-28T07:27:13;-24071.44;;;8.63;100.00
23659;BME280;12006;42.666;23.326;2023-02-28T07:29:49;-24069.88;;;8.59;100.00
23659;BME280;12006;42.666;23.326;2023-02-28T07:32:14;-24073.84;;;8.70;100.00
23659;BME280;12006;42.666;23.326;2023-02-28T07:34:40;-24080.19;;;8.89;100.00
23659;BME280;12006;42.666;23.326;2023-02-28T07:37:05;-24085.53;;;9.04;100.00
23659;BME280;12006;42.666;23.326;2023-02-28T07:39:30;-24092.03;;;9.23;100.00
23659;BME280;12006;42.666;23.326;2023-02-28T07:41:56;-24094.63;;;9.30;100.00
23659;BME280;12006;42.666;23.326;2023-02-28T07:44:21;-24094.97;;;9.31;100.00
23659;BME280;12006;42.666;23.326;2023-02-28T07:46:47;-24089.81;;;9.16;100.00
23659;BME280;12006;42.666;23.326;2023-02-28T07:49:12;-24086.53;;;9.07;100.00
23659;BME280;12006;42.666;23.326;2023-02-28T07:51:38;-24086.22;;;9.06;100.00
23659;BME280;12006;42.666;23.326;2023-02-28T07:54:03;-24085.53;;;9.04;100.00
23659;BME280;12006;42.666;23.326;2023-02-28T07:56:29;-24081.41;;;8.92;100.00
23659;BME280;12006;42.666;23.326;2023-02-28T07:58:54;-24084.66;;;9.02;100.00
23659;BME280;12006;42.666;23.326;2023-02-28T08:01:20;-24086.88;;;9.08;100.00
23659;BME280;12006;42.666;23.326;2023-02-28T08:03:45;-24086.22;;;9.06;100.00
23659;BME280;12006;42.666;23.326;2023-02-28T08:06:22;-24093.41;;;9.27;100.00
23659;BME280;12006;42.666;23.326;2023-02-28T08:08:48;-24098.91;;;9.43;100.00
23659;BME280;12006;42.666;23.326;2023-02-28T08:11:14;-24102.34;;;9.53;100.00
23659;BME280;12006;42.666;23.326;2023-02-28T08:13:41;-24102.88;;;9.54;100.00
23659;BME280;12006;42.666;23.326;2023-02-28T08:16:07;-24116.09;;;9.92;100.00
23659;BME280;12006;42.666;23.326;2023-02-28T08:18:33;-24121.25;;;10.07;100.00
23659;BME280;12006;42.666;23.326;2023-02-28T08:20:58;-24123.13;;;10.13;100.00
23659;BME280;12006;42.666;23.326;2023-02-28T08:23:24;-24124.84;;;10.18;100.00
23659;BME280;12006;42.666;23.326;2023-02-28T08:25:54;-24129.16;;;10.30;100.00
23659;BME280;12006;42.666;23.326;2023-02-28T08:28:20;-24132.41;;;10.39;100.00
23659;BME280;12006;42.666;23.326;2023-02-28T08:30:45;-24135.66;;;10.49;100.00
23659;BME280;12006;42.666;23.326;2023-02-28T08:33:11;-24136.88;;;10.52;100.00
23659;BME280;12006;42.666;23.326;2023-02-28T08:35:36;-24137.03;;;10.53;100.00
23659;BME280;12006;42.666;23.326;2023-02-28T08:38:02;-24135.31;;;10.48;100.00
23659;BME280;12006;42.666;23.326;2023-02-28T08:40:28;-24136.19;;;10.50;100.00
23659;BME280;12006;42.666;23.326;2023-02-28T08:42:53;-24131.72;;;10.37;100.00
23659;BME280;12006;42.666;23.326;2023-02-28T08:45:19;-24124.00;;;10.15;100.00
23659;BME280;12006;42.666;23.326;2023-02-28T08:47:44;-24118.31;;;9.99;100.00
23659;BME280;12006;42.666;23.326;2023-02-28T08:50:10;-24114.03;;;9.86;100.00
23659;BME280;12006;42.666;23.326;2023-02-28T08:52:35;-24108.88;;;9.71;100.00
23659;BME280;12006;42.666;23.326;2023-02-28T08:55:01;-24104.25;;;9.58;100.00
23659;BME280;12006;42.666;23.326;2023-02-28T08:57:26;-24108.19;;;9.69;100.00
23659;BME280;12006;42.666;23.326;2023-02-28T08:59:52;-24111.28;;;9.78;100.00
23659;BME280;12006;42.666;23.326;2023-02-28T09:02:18;-24109.56;;;9.73;100.00
23659;BME280;12006;42.666;23.326;2023-02-28T09:04:44;-24104.94;;;9.60;100.00
23659;BME280;12006;42.666;23.326;2023-02-28T09:07:12;-24096.84;;;9.37;100.00
23659;BME280;12006;42.666;23.326;2023-02-28T09:09:38;-24092.22;;;9.23;100.00
23659;BME280;12006;42.666;23.326;2023-02-28T09:12:19;-24087.75;;;9.10;100.00
23659;BME280;12006;42.666;23.326;2023-02-28T09:14:45;-24086.22;;;9.06;100.00
23659;BME280;12006;42.666;23.326;2023-02-28T09:17:10;-24089.13;;;9.14;100.00
23659;BME280;12006;42.666;23.326;2023-02-28T09:19:36;-24092.41;;;9.24;100.00
23659;BME280;12006;42.666;23.326;2023-02-28T09:22:02;-24098.22;;;9.41;100.00
23659;BME280;12006;42.666;23.326;2023-02-28T09:24:27;-24105.63;;;9.62;100.00
23659;BME280;12006;42.666;23.326;2023-02-28T09:26:53;-24111.09;;;9.78;100.00
23659;BME280;12006;42.666;23.326;2023-02-28T09:29:18;-24111.97;;;9.80;100.00
23659;BME280;12006;42.666;23.326;2023-02-28T09:31:43;-24109.03;;;9.72;100.00
23659;BME280;12006;42.666;23.326;2023-02-28T09:34:09;-24108.19;;;9.69;100.00
23659;BME280;12006;42.666;23.326;2023-02-28T09:36:35;-24111.97;;;9.80;100.00
23659;BME280;12006;42.666;23.326;2023-02-28T09:39:02;-24115.06;;;9.89;100.00
23659;BME280;12006;42.666;23.326;2023-02-28T09:41:36;-24113.50;;;9.85;100.00
23659;BME280;12006;42.666;23.326;2023-02-28T09:44:05;-24114.03;;;9.86;100.00
23659;BME280;12006;42.666;23.326;2023-02-28T09:46:42;-24114.03;;;9.86;100.00
23659;BME280;12006;42.666;23.326;2023-02-28T09:49:14;-24114.38;;;9.87;100.00
23659;BME280;12006;42.666;23.326;2023-02-28T09:51:53;-24120.22;;;10.04;100.00
23659;BME280;12006;42.666;23.326;2023-02-28T09:54:23;-24128.47;;;10.28;100.00
23659;BME280;12006;42.666;23.326;2023-02-28T10:05:14;-24149.06;;;10.88;100.00
23659;BME280;12006;42.666;23.326;2023-02-28T10:07:52;-24153.69;;;11.01;100.00
23659;BME280;12006;42.666;23.326;2023-02-28T10:10:36;-24157.28;;;11.11;100.00
23659;BME280;12006;42.666;23.326;2023-02-28T10:13:12;-24164.16;;;11.31;100.00
23659;BME280;12006;42.666;23.326;2023-02-28T10:15:38;-24171.03;;;11.51;100.00
23659;BME280;12006;42.666;23.326;2023-02-28T10:18:09;-24173.59;;;11.58;100.00
23659;BME280;12006;42.666;23.326;2023-02-28T10:20:39;-24177.53;;;11.70;100.00
23659;BME280;12006;42.666;23.326;2023-02-28T10:26:28;-24187.84;;;12.00;100.00
23659;BME280;12006;42.666;23.326;2023-02-28T10:28:55;-24184.91;;;11.91;100.00
23659;BME280;12006;42.666;23.326;2023-02-28T10:31:21;-24186.47;;;11.96;100.00
23659;BME280;12006;42.666;23.326;2023-02-28T10:33:47;-24188.88;;;12.03;100.00
23659;BME280;12006;42.666;23.326;2023-02-28T10:36:18;-24192.81;;;12.14;100.00
23659;BME280;12006;42.666;23.326;2023-02-28T10:38:47;-24192.63;;;12.13;100.00
23659;BME280;12006;42.666;23.326;2023-02-28T10:41:30;-24198.81;;;12.31;100.00
23659;BME280;12006;42.666;23.326;2023-02-28T10:44:14;-24202.22;;;12.41;100.00
23659;BME280;12006;42.666;23.326;2023-02-28T10:46:41;-24201.56;;;12.39;100.00
23659;BME280;12006;42.666;23.326;2023-02-28T10:49:27;-24202.75;;;12.43;100.00
23659;BME280;12006;42.666;23.326;2023-02-28T10:51:57;-24199.84;;;12.34;100.00
23659;BME280;12006;42.666;23.326;2023-02-28T10:54:36;-24207.72;;;12.57;100.00
23659;BME280;12006;42.666;23.326;2023-02-28T10:59:35;-24200.34;;;12.36;100.00
23659;BME280;12006;42.666;23.326;2023-02-28T11:02:00;-24192.28;;;12.12;100.00
23659;BME280;12006;42.666;23.326;2023-02-28T11:07:20;-24197.44;;;12.27;100.00
23659;BME280;12006;42.666;23.326;2023-02-28T11:09:48;-24196.59;;;12.25;100.00
23659;BME280;12006;42.666;23.326;2023-02-28T11:12:53;-24185.59;;;11.93;100.00
23659;BME280;12006;42.666;23.326;2023-02-28T11:15:24;-24192.47;;;12.13;100.00
23659;BME280;12006;42.666;23.326;2023-02-28T11:18:38;-24191.44;;;12.10;100.00
23659;BME280;12006;42.666;23.326;2023-02-28T11:20:48;-24182.69;;;11.85;100.00
23659;BME280;12006;42.666;23.326;2023-02-28T11:23:15;-24185.44;;;11.93;100.00
23659;BME280;12006;42.666;23.326;2023-02-28T11:25:50;-24186.81;;;11.97;100.00
23659;BME280;12006;42.666;23.326;2023-02-28T11:28:35;-24190.22;;;12.07;100.00
23659;BME280;12006;42.666;23.326;2023-02-28T11:38:41;-24189.88;;;12.06;100.00
23659;BME280;12006;42.666;23.326;2023-02-28T11:43:56;-24190.06;;;12.06;100.00
23659;BME280;12006;42.666;23.326;2023-02-28T11:46:45;-24187.50;;;11.99;100.00
23659;BME280;12006;42.666;23.326;2023-02-28T11:51:53;-24189.88;;;12.06;100.00
23659;BME280;12006;42.666;23.326;2023-02-28T12:08:49;-24200.34;;;12.36;100.00
23659;BME280;12006;42.666;23.326;2023-02-28T12:19:35;-24201.22;;;12.38;100.00
23659;BME280;12006;42.666;23.326;2023-02-28T12:22:25;-24203.28;;;12.44;100.00
23659;BME280;12006;42.666;23.326;2023-02-28T12:27:34;-24203.94;;;12.46;100.00
23659;BME280;12006;42.666;23.326;2023-02-28T12:30:26;-24201.91;;;12.40;100.00
23659;BME280;12006;42.666;23.326;2023-02-28T12:33:09;-24206.53;;;12.54;100.00
23659;BME280;12006;42.666;23.326;2023-02-28T12:35:49;-24202.94;;;12.43;100.00
23659;BME280;12006;42.666;23.326;2023-02-28T12:38:19;-24200.34;;;12.36;100.00
23659;BME280;12006;42.666;23.326;2023-02-28T12:40:53;-24195.22;;;12.21;100.00
23659;BME280;12006;42.666;23.326;2023-02-28T12:43:20;-24196.06;;;12.23;100.00
23659;BME280;12006;42.666;23.326;2023-02-28T12:45:55;-24191.94;;;12.11;100.00
23659;BME280;12006;42.666;23.326;2023-02-28T12:48:29;-24196.59;;;12.25;100.00
23659;BME280;12006;42.666;23.326;2023-02-28T12:50:56;-24199.16;;;12.32;100.00
23659;BME280;12006;42.666;23.326;2023-02-28T13:01:38;-24217.31;;;12.85;100.00
23659;BME280;12006;42.666;23.326;2023-02-28T13:09:15;-24219.38;;;12.91;100.00
23659;BME280;12006;42.666;23.326;2023-02-28T13:22:03;-24215.63;;;12.80;100.00
23659;BME280;12006;42.666;23.326;2023-02-28T13:24:46;-24216.13;;;12.81;100.00
23659;BME280;12006;42.666;23.326;2023-02-28T13:27:22;-24221.44;;;12.97;100.00
23659;BME280;12006;42.666;23.326;2023-02-28T13:29:49;-24217.31;;;12.85;100.00
23659;BME280;12006;42.666;23.326;2023-02-28T13:47:39;-24200.00;;;12.35;100.00
23659;BME280;12006;42.666;23.326;2023-02-28T13:58:37;-24206.69;;;12.54;100.00
23659;BME280;12006;42.666;23.326;2023-02-28T14:06:50;-24202.75;;;12.43;100.00
23659;BME280;12006;42.666;23.326;2023-02-28T14:09:48;-24202.22;;;12.41;100.00
23659;BME280;12006;42.666;23.326;2023-02-28T14:18:29;-24201.72;;;12.40;100.00
23659;BME280;12006;42.666;23.326;2023-02-28T14:21:20;-24196.06;;;12.23;100.00
23659;BME280;12006;42.666;23.326;2023-02-28T14:28:57;-24198.81;;;12.31;100.00
23659;BME280;12006;42.666;23.326;2023-02-28T14:31:44;-24194.69;;;12.19;100.00
23659;BME280;12006;42.666;23.326;2023-02-28T14:36:58;-24197.44;;;12.27;100.00
23659;BME280;12006;42.666;23.326;2023-02-28T14:39:26;-24190.41;;;12.07;100.00
23659;BME280;12006;42.666;23.326;2023-02-28T14:41:52;-24187.84;;;12.00;100.00
23659;BME280;12006;42.666;23.326;2023-02-28T14:44:23;-24181.31;;;11.81;100.00
23659;BME280;12006;42.666;23.326;2023-02-28T14:46:55;-24179.94;;;11.77;100.00
23659;BME280;12006;42.666;23.326;2023-02-28T14:49:32;-24178.22;;;11.72;100.00
23659;BME280;12006;42.666;23.326;2023-02-28T14:52:06;-24178.22;;;11.72;100.00
23659;BME280;12006;42.666;23.326;2023-02-28T14:54:37;-24173.25;;;11.57;100.00
23659;BME280;12006;42.666;23.326;2023-02-28T14:57:04;-24170.84;;;11.50;100.00
23659;BME280;12006;42.666;23.326;2023-02-28T14:59:33;-24171.19;;;11.51;100.00
23659;BME280;12006;42.666;23.326;2023-02-28T15:02:20;-24171.38;;;11.52;100.00
23659;BME280;12006;42.666;23.326;2023-02-28T15:04:59;-24168.28;;;11.43;100.00
23659;BME280;12006;42.666;23.326;2023-02-28T15:07:26;-24165.53;;;11.35;100.00
23659;BME280;12006;42.666;23.326;2023-02-28T15:10:27;-24165.88;;;11.36;100.00
23659;BME280;12006;42.666;23.326;2023-02-28T15:13:00;-24169.63;;;11.47;100.00
23659;BME280;12006;42.666;23.326;2023-02-28T15:18:05;-24166.91;;;11.39;100.00
23659;BME280;12006;42.666;23.326;2023-02-28T15:20:32;-24168.63;;;11.44;100.00
23659;BME280;12006;42.666;23.326;2023-02-28T15:22:58;-24167.94;;;11.42;100.00
23659;BME280;12006;42.666;23.326;2023-02-28T15:25:25;-24164.66;;;11.33;100.00
23659;BME280;12006;42.666;23.326;2023-02-28T15:27:55;-24160.22;;;11.20;100.00
23659;BME280;12006;42.666;23.326;2023-02-28T15:30:28;-24159.69;;;11.18;100.00
23659;BME280;12006;42.666;23.326;2023-02-28T15:35:34;-24154.38;;;11.03;100.00
23659;BME280;12006;42.666;23.326;2023-02-28T15:38:02;-24154.22;;;11.02;100.00
23659;BME280;12006;42.666;23.326;2023-02-28T15:40:30;-24150.44;;;10.91;100.00